Oriental Clematis — 9VJT5 — position and weather

sailwx.info

Track history (hours):
 
Tides and Currents Weather Stations Pressure Air Temp Water Temp Dewpoint Dewpoint Depression Visibility Wind Speed Wind Dir Waves Ship Positions

Oriental Clematis

Last reported at 2016-Feb-03 00:33 UTC. Time now 2016-Feb-08 06:10 UTC.
Position N 22°16' E 119°59'.

Length 134 m; draft 5.1 m.

Type: Ship. MMSI: 565157000.

Date/timePositionNaut miles runAvg speedWind from/ knotsBaromVisibWave heightAir tempDewpointWater temp
2016-Feb-03 00:33N 22°16' E 119°59'1212.3
2016-Feb-02 23:33N 22°28' E 119°58'10 9.6
2016-Feb-02 22:33N 22°33' E 120°07'1111.1
2016-Feb-02 21:33N 22°33' E 120°19'1 1.1
2016-Feb-02 20:33N 22°34' E 120°18'0 0.0
2016-Feb-02 19:26N 22°34' E 120°18'0 0.0
2016-Feb-02 18:26N 22°34' E 120°18'0 0.0
2016-Feb-02 17:33N 22°34' E 120°18'5 4.6
2016-Feb-02 16:33N 22°32' E 120°14'10 9.8
2016-Feb-02 15:33N 22°30' E 120°04'1511.4
2016-Feb-02 14:15N 22°26' E 119°48'300 6.5
2016-Jan-31 16:22N 22°01' E 114°25'29 9.0
2016-Jan-31 13:05N 22°05' E 113°54'610.5
2016-Jan-31 12:33N 22°07' E 113°48'9 9.2
2016-Jan-31 11:33N 22°16' E 113°48'3012.4
2016-Jan-31 09:09N 22°45' E 113°39'711.8
2016-Jan-31 08:33N 22°51' E 113°34'1010.2
2016-Jan-31 07:34N 23°00' E 113°31'1 1.2
2016-Jan-31 06:33N 23°01' E 113°32'0 0.0
2016-Jan-31 05:33N 23°01' E 113°32'0 0.0
2016-Jan-31 04:33N 23°01' E 113°32'0 0.0
2016-Jan-31 03:33N 23°01' E 113°32'0 0.0
2016-Jan-31 02:09N 23°01' E 113°32'0 0.0
2016-Jan-31 01:33N 23°01' E 113°32'0 0.0
2016-Jan-31 00:27N 23°01' E 113°32'0 0.0
2016-Jan-30 23:33N 23°01' E 113°32'0 0.0
2016-Jan-30 22:33N 23°01' E 113°32'0 0.0
2016-Jan-30 21:33N 23°01' E 113°32'0 0.0
2016-Jan-30 20:27N 23°01' E 113°32'0 0.0
2016-Jan-30 19:33N 23°01' E 113°32'0 0.0
2016-Jan-30 18:33N 23°01' E 113°32'0 0.0
2016-Jan-30 17:27N 23°01' E 113°32'0 0.0
2016-Jan-30 16:27N 23°01' E 113°32'0 0.0
2016-Jan-30 15:33N 23°01' E 113°32'0 0.0
2016-Jan-30 14:33N 23°01' E 113°32'0 0.0
2016-Jan-30 13:27N 23°01' E 113°32'0 0.0
2016-Jan-30 12:10N 23°01' E 113°32'0 0.0
2016-Jan-30 08:11N 23°01' E 113°32'0 0.0
2016-Jan-30 07:29N 23°01' E 113°32'0 0.0
2016-Jan-30 06:17N 23°01' E 113°32'0 0.0
2016-Jan-30 05:23N 23°01' E 113°32'0 0.0
2016-Jan-30 04:29N 23°01' E 113°32'0 0.0
2016-Jan-30 02:23N 23°01' E 113°32'0 0.0
2016-Jan-30 01:29N 23°01' E 113°32'0 0.0
2016-Jan-29 23:17N 23°01' E 113°32'0 0.0
2016-Jan-29 22:29N 23°01' E 113°32'0 0.0
2016-Jan-29 21:29N 23°01' E 113°32'0 0.0
2016-Jan-29 20:29N 23°01' E 113°32'0 0.0
2016-Jan-29 19:17N 23°01' E 113°32'0 0.0
2016-Jan-29 18:29N 23°01' E 113°32'0 0.0
2016-Jan-29 17:23N 23°01' E 113°32'0 0.0
2016-Jan-29 16:29N 23°01' E 113°32'0 0.0
2016-Jan-29 15:29N 23°01' E 113°32'0 0.0
2016-Jan-29 14:17N 23°01' E 113°32'0 0.0
2016-Jan-29 13:23N 23°01' E 113°32'0 0.0
2016-Jan-29 12:17N 23°01' E 113°32'0 0.0
2016-Jan-29 11:29N 23°01' E 113°32'0 0.0
2016-Jan-29 10:29N 23°01' E 113°32'0 0.0
2016-Jan-29 09:23N 23°01' E 113°32'0 0.0
2016-Jan-29 08:29N 23°01' E 113°32'0 0.0
2016-Jan-29 07:29N 23°01' E 113°32'0 0.0
2016-Jan-29 06:29N 23°01' E 113°32'0 0.0
2016-Jan-29 05:23N 23°01' E 113°32'0 0.0
2016-Jan-29 04:17N 23°01' E 113°32'0 0.0
2016-Jan-29 03:29N 23°01' E 113°32'0 0.0
2016-Jan-29 02:29N 23°01' E 113°32'0 0.0
2016-Jan-29 01:29N 23°01' E 113°32'0 0.0
2016-Jan-29 00:29N 23°01' E 113°32'0 0.0
2016-Jan-28 23:29N 23°01' E 113°32'0 0.0
2016-Jan-28 22:29N 23°01' E 113°32'0 0.0
2016-Jan-28 21:29N 23°01' E 113°32'0 0.0
2016-Jan-28 20:29N 23°01' E 113°32'0 0.0
2016-Jan-28 19:23N 23°01' E 113°32'0 0.0
2016-Jan-28 18:29N 23°01' E 113°32'0 0.0
2016-Jan-28 17:29N 23°01' E 113°32'0 0.0
2016-Jan-28 16:29N 23°01' E 113°32'0 0.0
2016-Jan-28 15:29N 23°01' E 113°32'0 0.0
2016-Jan-28 14:29N 23°01' E 113°32'0 0.0
2016-Jan-28 13:11N 23°01' E 113°32'0 0.0
2016-Jan-28 12:23N 23°01' E 113°32'0 0.0
2016-Jan-28 11:29N 23°01' E 113°32'0 0.0
2016-Jan-28 10:05N 23°01' E 113°32'0 0.0
2016-Jan-28 09:11N 23°01' E 113°32'0 0.0
2016-Jan-28 08:23N 23°01' E 113°32'0 0.0
2016-Jan-28 07:29N 23°01' E 113°32'0 0.0
2016-Jan-28 06:29N 23°01' E 113°32'0 0.0
2016-Jan-28 05:23N 23°01' E 113°32'0 0.0
2016-Jan-28 04:29N 23°01' E 113°32'0 0.0
2016-Jan-28 03:17N 23°01' E 113°32'0 0.0
2016-Jan-28 02:29N 23°01' E 113°32'0 0.0
2016-Jan-28 01:11N 23°01' E 113°32'0 0.0
2016-Jan-28 00:23N 23°01' E 113°32'0 0.1
2016-Jan-27 23:29N 23°01' E 113°31'0 0.1
2016-Jan-27 22:23N 23°01' E 113°32'0 0.0
2016-Jan-27 21:23N 23°01' E 113°32'0 0.0
2016-Jan-27 20:23N 23°01' E 113°32'0 0.0
2016-Jan-27 19:29N 23°01' E 113°32'0 0.0
2016-Jan-27 18:23N 23°01' E 113°32'0 0.0
2016-Jan-27 17:17N 23°01' E 113°32'0 0.0
2016-Jan-27 16:29N 23°01' E 113°32'0 0.0
2016-Jan-27 15:29N 23°01' E 113°32'2 2.1
2016-Jan-27 14:32N 22°59' E 113°32'9 9.3
2016-Jan-27 13:33N 22°51' E 113°35'4610.7
2016-Jan-27 09:18N 22°07' E 113°49'  
Track history (hours):
 
Tides and Currents Weather Stations Pressure Air Temp Water Temp Dewpoint Dewpoint Depression Visibility Wind Speed Wind Dir Waves Ship Positions

Oriental Clematis

Last reported at 2016-Feb-03 00:33 UTC. Time now 2016-Feb-08 06:10 UTC.
Position N 22°16' E 119°59'.

Length 134 m; draft 5.1 m.

Type: Ship. MMSI: 565157000.

Date/timePositionNaut miles runAvg speedWind from/ knotsBaromVisibWave heightAir tempDewpointWater temp
2016-Feb-03 00:33N 22°16' E 119°59'1212.3
2016-Feb-02 23:33N 22°28' E 119°58'10 9.6
2016-Feb-02 22:33N 22°33' E 120°07'1111.1
2016-Feb-02 21:33N 22°33' E 120°19'1 1.1
2016-Feb-02 20:33N 22°34' E 120°18'0 0.0
2016-Feb-02 19:26N 22°34' E 120°18'0 0.0
2016-Feb-02 18:26N 22°34' E 120°18'0 0.0
2016-Feb-02 17:33N 22°34' E 120°18'5 4.6
2016-Feb-02 16:33N 22°32' E 120°14'10 9.8
2016-Feb-02 15:33N 22°30' E 120°04'1511.4
2016-Feb-02 14:15N 22°26' E 119°48'300 6.5
2016-Jan-31 16:22N 22°01' E 114°25'29 9.0
2016-Jan-31 13:05N 22°05' E 113°54'610.5
2016-Jan-31 12:33N 22°07' E 113°48'9 9.2
2016-Jan-31 11:33N 22°16' E 113°48'3012.4
2016-Jan-31 09:09N 22°45' E 113°39'711.8
2016-Jan-31 08:33N 22°51' E 113°34'1010.2
2016-Jan-31 07:34N 23°00' E 113°31'1 1.2
2016-Jan-31 06:33N 23°01' E 113°32'0 0.0
2016-Jan-31 05:33N 23°01' E 113°32'0 0.0
2016-Jan-31 04:33N 23°01' E 113°32'0 0.0
2016-Jan-31 03:33N 23°01' E 113°32'0 0.0
2016-Jan-31 02:09N 23°01' E 113°32'0 0.0
2016-Jan-31 01:33N 23°01' E 113°32'0 0.0
2016-Jan-31 00:27N 23°01' E 113°32'0 0.0
2016-Jan-30 23:33N 23°01' E 113°32'0 0.0
2016-Jan-30 22:33N 23°01' E 113°32'0 0.0
2016-Jan-30 21:33N 23°01' E 113°32'0 0.0
2016-Jan-30 20:27N 23°01' E 113°32'0 0.0
2016-Jan-30 19:33N 23°01' E 113°32'0 0.0
2016-Jan-30 18:33N 23°01' E 113°32'0 0.0
2016-Jan-30 17:27N 23°01' E 113°32'0 0.0
2016-Jan-30 16:27N 23°01' E 113°32'0 0.0
2016-Jan-30 15:33N 23°01' E 113°32'0 0.0
2016-Jan-30 14:33N 23°01' E 113°32'0 0.0
2016-Jan-30 13:27N 23°01' E 113°32'0 0.0
2016-Jan-30 12:10N 23°01' E 113°32'0 0.0
2016-Jan-30 08:11N 23°01' E 113°32'0 0.0
2016-Jan-30 07:29N 23°01' E 113°32'0 0.0
2016-Jan-30 06:17N 23°01' E 113°32'0 0.0
2016-Jan-30 05:23N 23°01' E 113°32'0 0.0
2016-Jan-30 04:29N 23°01' E 113°32'0 0.0
2016-Jan-30 02:23N 23°01' E 113°32'0 0.0
2016-Jan-30 01:29N 23°01' E 113°32'0 0.0
2016-Jan-29 23:17N 23°01' E 113°32'0 0.0
2016-Jan-29 22:29N 23°01' E 113°32'0 0.0
2016-Jan-29 21:29N 23°01' E 113°32'0 0.0
2016-Jan-29 20:29N 23°01' E 113°32'0 0.0
2016-Jan-29 19:17N 23°01' E 113°32'0 0.0
2016-Jan-29 18:29N 23°01' E 113°32'0 0.0
2016-Jan-29 17:23N 23°01' E 113°32'0 0.0
2016-Jan-29 16:29N 23°01' E 113°32'0 0.0
2016-Jan-29 15:29N 23°01' E 113°32'0 0.0
2016-Jan-29 14:17N 23°01' E 113°32'0 0.0
2016-Jan-29 13:23N 23°01' E 113°32'0 0.0
2016-Jan-29 12:17N 23°01' E 113°32'0 0.0
2016-Jan-29 11:29N 23°01' E 113°32'0 0.0
2016-Jan-29 10:29N 23°01' E 113°32'0 0.0
2016-Jan-29 09:23N 23°01' E 113°32'0 0.0
2016-Jan-29 08:29N 23°01' E 113°32'0 0.0
2016-Jan-29 07:29N 23°01' E 113°32'0 0.0
2016-Jan-29 06:29N 23°01' E 113°32'0 0.0
2016-Jan-29 05:23N 23°01' E 113°32'0 0.0
2016-Jan-29 04:17N 23°01' E 113°32'0 0.0
2016-Jan-29 03:29N 23°01' E 113°32'0 0.0
2016-Jan-29 02:29N 23°01' E 113°32'0 0.0
2016-Jan-29 01:29N 23°01' E 113°32'0 0.0
2016-Jan-29 00:29N 23°01' E 113°32'0 0.0
2016-Jan-28 23:29N 23°01' E 113°32'0 0.0
2016-Jan-28 22:29N 23°01' E 113°32'0 0.0
2016-Jan-28 21:29N 23°01' E 113°32'0 0.0
2016-Jan-28 20:29N 23°01' E 113°32'0 0.0
2016-Jan-28 19:23N 23°01' E 113°32'0 0.0
2016-Jan-28 18:29N 23°01' E 113°32'0 0.0
2016-Jan-28 17:29N 23°01' E 113°32'0 0.0
2016-Jan-28 16:29N 23°01' E 113°32'0 0.0
2016-Jan-28 15:29N 23°01' E 113°32'0 0.0
2016-Jan-28 14:29N 23°01' E 113°32'0 0.0
2016-Jan-28 13:11N 23°01' E 113°32'0 0.0
2016-Jan-28 12:23N 23°01' E 113°32'0 0.0
2016-Jan-28 11:29N 23°01' E 113°32'0 0.0
2016-Jan-28 10:05N 23°01' E 113°32'0 0.0
2016-Jan-28 09:11N 23°01' E 113°32'0 0.0
2016-Jan-28 08:23N 23°01' E 113°32'0 0.0
2016-Jan-28 07:29N 23°01' E 113°32'0 0.0
2016-Jan-28 06:29N 23°01' E 113°32'0 0.0
2016-Jan-28 05:23N 23°01' E 113°32'0 0.0
2016-Jan-28 04:29N 23°01' E 113°32'0 0.0
2016-Jan-28 03:17N 23°01' E 113°32'0 0.0
2016-Jan-28 02:29N 23°01' E 113°32'0 0.0
2016-Jan-28 01:11N 23°01' E 113°32'0 0.0
2016-Jan-28 00:23N 23°01' E 113°32'0 0.1
2016-Jan-27 23:29N 23°01' E 113°31'0 0.1
2016-Jan-27 22:23N 23°01' E 113°32'0 0.0
2016-Jan-27 21:23N 23°01' E 113°32'0 0.0
2016-Jan-27 20:23N 23°01' E 113°32'0 0.0
2016-Jan-27 19:29N 23°01' E 113°32'0 0.0
2016-Jan-27 18:23N 23°01' E 113°32'0 0.0
2016-Jan-27 17:17N 23°01' E 113°32'0 0.0
2016-Jan-27 16:29N 23°01' E 113°32'0 0.0
2016-Jan-27 15:29N 23°01' E 113°32'2 2.1
2016-Jan-27 14:32N 22°59' E 113°32'9 9.3
2016-Jan-27 13:33N 22°51' E 113°35'4610.7
2016-Jan-27 09:18N 22°07' E 113°49'  

Dump ship's entire track history